sensor_id;sensor_type;location;lat;lon;timestamp;pressure;altitude;pressure_sealevel;temperature;humidity
46846;BME280;33947;46.804;134.252;2022-07-25T00:01:00;100440.16;;;25.07;75.59
46846;BME280;33947;46.804;134.252;2022-07-25T00:04:05;100438.91;;;24.80;76.75
46846;BME280;33947;46.804;134.252;2022-07-25T00:07:14;100425.25;;;24.70;76.66
46846;BME280;33947;46.804;134.252;2022-07-25T00:10:19;100435.56;;;24.46;76.93
46846;BME280;33947;46.804;134.252;2022-07-25T00:13:23;100429.28;;;24.24;77.53
46846;BME280;33947;46.804;134.252;2022-07-25T00:16:28;100438.38;;;24.13;77.04
46846;BME280;33947;46.804;134.252;2022-07-25T00:19:33;100423.63;;;24.06;77.08
46846;BME280;33947;46.804;134.252;2022-07-25T00:22:37;100431.00;;;24.04;75.98
46846;BME280;33947;46.804;134.252;2022-07-25T00:25:42;100433.88;;;24.02;76.44
46846;BME280;33947;46.804;134.252;2022-07-25T00:28:47;100444.81;;;24.12;76.85
46846;BME280;33947;46.804;134.252;2022-07-25T00:31:52;100417.22;;;23.95;77.13
46846;BME280;33947;46.804;134.252;2022-07-25T00:34:56;100429.06;;;23.94;76.82
46846;BME280;33947;46.804;134.252;2022-07-25T00:38:02;100427.78;;;23.77;78.05
46846;BME280;33947;46.804;134.252;2022-07-25T00:41:06;100432.47;;;23.75;78.54
46846;BME280;33947;46.804;134.252;2022-07-25T00:44:27;100444.25;;;23.85;77.18
46846;BME280;33947;46.804;134.252;2022-07-25T00:47:32;100428.31;;;23.71;78.39
46846;BME280;33947;46.804;134.252;2022-07-25T00:50:37;100435.09;;;23.65;78.80
46846;BME280;33947;46.804;134.252;2022-07-25T00:53:42;100444.72;;;23.69;78.75
46846;BME280;33947;46.804;134.252;2022-07-25T00:56:48;100428.63;;;23.56;79.35
46846;BME280;33947;46.804;134.252;2022-07-25T00:59:53;100449.56;;;23.87;78.02
46846;BME280;33947;46.804;134.252;2022-07-25T01:02:57;100445.34;;;23.94;78.00
46846;BME280;33947;46.804;134.252;2022-07-25T01:06:02;100442.84;;;24.24;76.98
46846;BME280;33947;46.804;134.252;2022-07-25T01:09:07;100416.50;;;23.93;77.66
46846;BME280;33947;46.804;134.252;2022-07-25T01:12:12;100424.69;;;23.82;78.60
46846;BME280;33947;46.804;134.252;2022-07-25T01:15:18;100447.28;;;23.71;79.87
46846;BME280;33947;46.804;134.252;2022-07-25T01:18:23;100449.19;;;23.59;80.08
46846;BME280;33947;46.804;134.252;2022-07-25T01:21:28;100454.53;;;23.38;81.03
46846;BME280;33947;46.804;134.252;2022-07-25T01:24:34;100448.75;;;23.20;81.30
46846;BME280;33947;46.804;134.252;2022-07-25T01:27:40;100336.94;;;22.39;82.08
46846;BME280;33947;46.804;134.252;2022-07-25T01:30:45;100442.75;;;23.05;81.78
46846;BME280;33947;46.804;134.252;2022-07-25T01:33:50;100445.34;;;22.83;83.27
46846;BME280;33947;46.804;134.252;2022-07-25T01:36:55;100433.31;;;22.65;84.37
46846;BME280;33947;46.804;134.252;2022-07-25T01:40:00;100432.81;;;22.60;84.88
46846;BME280;33947;46.804;134.252;2022-07-25T01:43:06;100425.69;;;22.59;84.85
46846;BME280;33947;46.804;134.252;2022-07-25T01:46:11;100438.47;;;22.79;84.69
46846;BME280;33947;46.804;134.252;2022-07-25T01:49:16;100429.97;;;22.95;84.36
46846;BME280;33947;46.804;134.252;2022-07-25T01:52:20;100438.78;;;23.20;83.82
46846;BME280;33947;46.804;134.252;2022-07-25T01:55:25;100422.91;;;23.27;83.03
46846;BME280;33947;46.804;134.252;2022-07-25T01:58:33;100431.88;;;23.39;82.01
46846;BME280;33947;46.804;134.252;2022-07-25T02:01:38;100433.69;;;23.50;82.16
46846;BME280;33947;46.804;134.252;2022-07-25T02:04:43;100421.91;;;23.39;82.02
46846;BME280;33947;46.804;134.252;2022-07-25T02:07:47;100438.50;;;23.46;82.41
46846;BME280;33947;46.804;134.252;2022-07-25T02:10:52;100433.69;;;23.50;83.07
46846;BME280;33947;46.804;134.252;2022-07-25T02:13:57;100443.47;;;23.30;82.98
46846;BME280;33947;46.804;134.252;2022-07-25T02:17:01;100427.34;;;23.28;83.13
46846;BME280;33947;46.804;134.252;2022-07-25T02:20:06;100438.56;;;23.12;83.74
46846;BME280;33947;46.804;134.252;2022-07-25T02:23:11;100415.78;;;23.03;83.62
46846;BME280;33947;46.804;134.252;2022-07-25T02:26:16;100421.44;;;23.11;83.79
46846;BME280;33947;46.804;134.252;2022-07-25T02:29:20;100415.28;;;23.32;82.76
46846;BME280;33947;46.804;134.252;2022-07-25T02:32:25;100424.19;;;23.55;82.40
46846;BME280;33947;46.804;134.252;2022-07-25T02:35:30;100399.13;;;23.63;81.92
46846;BME280;33947;46.804;134.252;2022-07-25T02:38:34;100418.06;;;23.75;81.55
46846;BME280;33947;46.804;134.252;2022-07-25T02:41:39;100407.34;;;23.73;80.94
46846;BME280;33947;46.804;134.252;2022-07-25T02:44:44;100420.91;;;23.73;81.70
46846;BME280;33947;46.804;134.252;2022-07-25T02:47:49;100413.66;;;23.74;81.39
46846;BME280;33947;46.804;134.252;2022-07-25T02:50:54;100420.50;;;23.45;82.41
46846;BME280;33947;46.804;134.252;2022-07-25T02:53:58;100410.19;;;23.39;83.19
46846;BME280;33947;46.804;134.252;2022-07-25T02:57:03;100413.78;;;23.28;83.92
46846;BME280;33947;46.804;134.252;2022-07-25T03:00:08;100418.34;;;23.27;84.03
46846;BME280;33947;46.804;134.252;2022-07-25T03:03:13;100405.16;;;23.23;83.73
46846;BME280;33947;46.804;134.252;2022-07-25T03:06:17;100404.44;;;23.09;83.95
46846;BME280;33947;46.804;134.252;2022-07-25T03:09:22;100412.31;;;23.12;84.24
46846;BME280;33947;46.804;134.252;2022-07-25T03:12:27;100406.91;;;23.12;83.84
46846;BME280;33947;46.804;134.252;2022-07-25T03:15:31;100405.44;;;23.31;83.48
46846;BME280;33947;46.804;134.252;2022-07-25T03:18:36;100404.03;;;23.37;82.56
46846;BME280;33947;46.804;134.252;2022-07-25T03:21:40;100399.50;;;23.26;82.54
46846;BME280;33947;46.804;134.252;2022-07-25T03:24:45;100418.69;;;23.23;83.79
46846;BME280;33947;46.804;134.252;2022-07-25T03:27:50;100414.03;;;23.13;84.33
46846;BME280;33947;46.804;134.252;2022-07-25T03:30:55;100410.75;;;22.98;84.15
46846;BME280;33947;46.804;134.252;2022-07-25T03:34:00;100410.50;;;22.90;85.02
46846;BME280;33947;46.804;134.252;2022-07-25T03:37:06;100429.84;;;22.63;86.87
46846;BME280;33947;46.804;134.252;2022-07-25T03:40:11;100418.00;;;22.52;87.37
46846;BME280;33947;46.804;134.252;2022-07-25T03:43:17;100431.50;;;22.41;88.84
46846;BME280;33947;46.804;134.252;2022-07-25T03:46:22;100419.94;;;22.39;89.37
46846;BME280;33947;46.804;134.252;2022-07-25T03:49:26;100427.34;;;22.37;90.14
46846;BME280;33947;46.804;134.252;2022-07-25T03:52:31;100419.94;;;22.39;90.14
46846;BME280;33947;46.804;134.252;2022-07-25T03:55:37;100432.44;;;22.53;89.64
46846;BME280;33947;46.804;134.252;2022-07-25T03:58:42;100435.38;;;22.50;90.51
46846;BME280;33947;46.804;134.252;2022-07-25T04:01:48;100411.81;;;22.27;92.23
46846;BME280;33947;46.804;134.252;2022-07-25T04:04:53;100427.38;;;22.48;91.87
46846;BME280;33947;46.804;134.252;2022-07-25T04:07:58;100395.75;;;22.49;91.60
46846;BME280;33947;46.804;134.252;2022-07-25T04:11:03;100428.88;;;22.75;95.22
46846;BME280;33947;46.804;134.252;2022-07-25T04:14:08;100413.59;;;22.86;91.83
46846;BME280;33947;46.804;134.252;2022-07-25T04:17:13;100416.69;;;22.81;95.35
46846;BME280;33947;46.804;134.252;2022-07-25T04:20:18;100390.34;;;22.60;92.44
46846;BME280;33947;46.804;134.252;2022-07-25T04:23:23;100417.03;;;22.88;92.34
46846;BME280;33947;46.804;134.252;2022-07-25T04:26:28;100399.31;;;22.83;92.63
46846;BME280;33947;46.804;134.252;2022-07-25T04:29:32;100387.00;;;22.79;91.73
46846;BME280;33947;46.804;134.252;2022-07-25T04:32:37;100402.25;;;22.92;94.28
46846;BME280;33947;46.804;134.252;2022-07-25T04:35:43;100397.44;;;22.95;94.87
46846;BME280;33947;46.804;134.252;2022-07-25T04:38:48;100392.41;;;23.02;91.66
46846;BME280;33947;46.804;134.252;2022-07-25T04:41:52;100381.19;;;22.95;91.44
46846;BME280;33947;46.804;134.252;2022-07-25T04:44:57;100394.34;;;23.11;91.73
46846;BME280;33947;46.804;134.252;2022-07-25T04:48:02;100398.53;;;23.16;91.14
46846;BME280;33947;46.804;134.252;2022-07-25T04:51:07;100354.72;;;22.99;91.31
46846;BME280;33947;46.804;134.252;2022-07-25T04:54:13;100381.03;;;23.31;90.77
46846;BME280;33947;46.804;134.252;2022-07-25T04:57:18;100364.78;;;23.31;91.20
46846;BME280;33947;46.804;134.252;2022-07-25T05:00:23;100372.06;;;23.52;90.53
46846;BME280;33947;46.804;134.252;2022-07-25T05:03:28;100360.41;;;23.40;91.21
46846;BME280;33947;46.804;134.252;2022-07-25T05:06:32;100362.75;;;23.45;91.75
46846;BME280;33947;46.804;134.252;2022-07-25T05:09:37;100346.53;;;23.33;91.29
46846;BME280;33947;46.804;134.252;2022-07-25T05:12:42;100345.78;;;23.20;92.59
46846;BME280;33947;46.804;134.252;2022-07-25T05:15:47;100348.47;;;23.64;90.58
46846;BME280;33947;46.804;134.252;2022-07-25T05:18:52;100342.66;;;23.90;89.91
46846;BME280;33947;46.804;134.252;2022-07-25T05:21:57;100351.13;;;24.18;87.42
46846;BME280;33947;46.804;134.252;2022-07-25T05:25:05;100347.13;;;24.22;86.45
46846;BME280;33947;46.804;134.252;2022-07-25T05:28:11;100332.06;;;24.29;86.17
46846;BME280;33947;46.804;134.252;2022-07-25T05:31:17;100314.72;;;24.20;85.07
46846;BME280;33947;46.804;134.252;2022-07-25T05:34:22;100344.41;;;24.12;85.17
46846;BME280;33947;46.804;134.252;2022-07-25T05:37:27;100331.34;;;24.27;85.13
46846;BME280;33947;46.804;134.252;2022-07-25T05:40:31;100337.91;;;24.65;84.35
46846;BME280;33947;46.804;134.252;2022-07-25T05:43:36;100335.81;;;24.79;83.45
46846;BME280;33947;46.804;134.252;2022-07-25T05:46:41;100326.78;;;24.68;83.13
46846;BME280;33947;46.804;134.252;2022-07-25T05:49:46;100334.16;;;24.56;84.51
46846;BME280;33947;46.804;134.252;2022-07-25T05:52:50;100335.25;;;24.44;83.34
46846;BME280;33947;46.804;134.252;2022-07-25T05:55:55;100320.13;;;24.51;84.09
46846;BME280;33947;46.804;134.252;2022-07-25T05:59:00;100328.75;;;24.66;84.45
46846;BME280;33947;46.804;134.252;2022-07-25T06:02:04;100336.94;;;24.76;83.26
46846;BME280;33947;46.804;134.252;2022-07-25T06:05:09;100339.13;;;24.82;82.93
46846;BME280;33947;46.804;134.252;2022-07-25T06:08:14;100341.41;;;24.87;82.64
46846;BME280;33947;46.804;134.252;2022-07-25T06:11:19;100333.09;;;24.79;81.81
46846;BME280;33947;46.804;134.252;2022-07-25T06:14:25;100343.56;;;24.83;82.19
46846;BME280;33947;46.804;134.252;2022-07-25T06:17:30;100335.41;;;24.83;82.67
46846;BME280;33947;46.804;134.252;2022-07-25T06:20:35;100326.25;;;24.75;83.08
46846;BME280;33947;46.804;134.252;2022-07-25T06:23:39;100342.28;;;24.88;82.37
46846;BME280;33947;46.804;134.252;2022-07-25T06:26:44;100331.50;;;24.76;81.24
46846;BME280;33947;46.804;134.252;2022-07-25T06:29:49;100332.75;;;24.72;80.47
46846;BME280;33947;46.804;134.252;2022-07-25T06:32:53;100335.88;;;24.57;80.10
46846;BME280;33947;46.804;134.252;2022-07-25T06:35:59;100332.16;;;24.59;80.28
46846;BME280;33947;46.804;134.252;2022-07-25T06:39:03;100333.91;;;24.69;79.17
46846;BME280;33947;46.804;134.252;2022-07-25T06:42:08;100318.91;;;24.65;79.96
46846;BME280;33947;46.804;134.252;2022-07-25T06:45:14;100332.22;;;24.78;78.82
46846;BME280;33947;46.804;134.252;2022-07-25T06:48:18;100327.72;;;24.57;80.19
46846;BME280;33947;46.804;134.252;2022-07-25T06:51:23;100312.84;;;24.52;80.32
46846;BME280;33947;46.804;134.252;2022-07-25T06:54:28;100315.47;;;24.73;80.35
46846;BME280;33947;46.804;134.252;2022-07-25T06:57:35;100320.84;;;24.84;79.14
46846;BME280;33947;46.804;134.252;2022-07-25T07:00:39;100321.69;;;24.95;77.98
46846;BME280;33947;46.804;134.252;2022-07-25T07:03:44;100313.41;;;24.87;77.78
46846;BME280;33947;46.804;134.252;2022-07-25T07:06:49;100315.94;;;24.78;77.98
46846;BME280;33947;46.804;134.252;2022-07-25T07:09:53;100319.13;;;24.83;77.91
46846;BME280;33947;46.804;134.252;2022-07-25T07:13:08;100319.13;;;24.93;76.74
46846;BME280;33947;46.804;134.252;2022-07-25T07:16:14;100325.56;;;24.82;77.82
46846;BME280;33947;46.804;134.252;2022-07-25T07:19:19;100311.81;;;24.84;76.97
46846;BME280;33947;46.804;134.252;2022-07-25T07:22:24;100301.63;;;24.76;76.70
46846;BME280;33947;46.804;134.252;2022-07-25T07:25:28;100294.91;;;24.70;76.34
46846;BME280;33947;46.804;134.252;2022-07-25T07:28:34;100303.44;;;24.66;77.06
46846;BME280;33947;46.804;134.252;2022-07-25T07:31:38;100294.47;;;24.75;76.66
46846;BME280;33947;46.804;134.252;2022-07-25T07:34:43;100293.81;;;24.93;76.32
46846;BME280;33947;46.804;134.252;2022-07-25T07:37:48;100287.38;;;24.94;75.78
46846;BME280;33947;46.804;134.252;2022-07-25T07:40:53;100297.09;;;24.87;76.72
46846;BME280;33947;46.804;134.252;2022-07-25T07:43:58;100305.38;;;24.85;77.28
46846;BME280;33947;46.804;134.252;2022-07-25T07:47:02;100303.88;;;24.71;77.38
46846;BME280;33947;46.804;134.252;2022-07-25T07:50:19;100298.28;;;24.63;77.23
46846;BME280;33947;46.804;134.252;2022-07-25T07:53:24;100307.16;;;24.65;77.51
46846;BME280;33947;46.804;134.252;2022-07-25T07:56:49;100283.41;;;24.47;77.81
46846;BME280;33947;46.804;134.252;2022-07-25T07:59:53;100289.22;;;24.42;78.09
46846;BME280;33947;46.804;134.252;2022-07-25T08:02:58;100283.22;;;24.39;78.01
46846;BME280;33947;46.804;134.252;2022-07-25T08:06:03;100285.81;;;24.40;78.11
46846;BME280;33947;46.804;134.252;2022-07-25T08:09:08;100295.53;;;24.53;77.72
46846;BME280;33947;46.804;134.252;2022-07-25T08:12:13;100290.72;;;24.56;76.90
46846;BME280;33947;46.804;134.252;2022-07-25T08:15:19;100271.69;;;24.56;76.40
46846;BME280;33947;46.804;134.252;2022-07-25T08:18:25;100278.78;;;24.79;76.49
46846;BME280;33947;46.804;134.252;2022-07-25T08:21:32;100280.22;;;24.83;76.13
46846;BME280;33947;46.804;134.252;2022-07-25T08:24:37;100285.88;;;24.70;75.96
46846;BME280;33947;46.804;134.252;2022-07-25T08:27:45;100268.84;;;24.48;76.72
46846;BME280;33947;46.804;134.252;2022-07-25T08:30:50;100265.13;;;24.49;77.24
46846;BME280;33947;46.804;134.252;2022-07-25T08:33:55;100263.25;;;24.50;77.21
46846;BME280;33947;46.804;134.252;2022-07-25T08:37:00;100277.84;;;24.59;76.76
46846;BME280;33947;46.804;134.252;2022-07-25T08:40:06;100278.97;;;24.56;76.51
46846;BME280;33947;46.804;134.252;2022-07-25T08:43:13;100264.25;;;24.49;76.71
46846;BME280;33947;46.804;134.252;2022-07-25T08:46:19;100267.47;;;24.33;77.14
46846;BME280;33947;46.804;134.252;2022-07-25T08:49:27;100272.34;;;24.39;76.94
46846;BME280;33947;46.804;134.252;2022-07-25T08:52:33;100276.69;;;24.51;76.82
46846;BME280;33947;46.804;134.252;2022-07-25T08:55:39;100266.28;;;24.56;76.58
46846;BME280;33947;46.804;134.252;2022-07-25T08:58:45;100274.13;;;24.60;76.41
46846;BME280;33947;46.804;134.252;2022-07-25T09:01:49;100276.34;;;24.25;75.70
46846;BME280;33947;46.804;134.252;2022-07-25T09:04:55;100275.50;;;24.34;77.56
46846;BME280;33947;46.804;134.252;2022-07-25T09:08:10;100274.34;;;24.37;77.53
46846;BME280;33947;46.804;134.252;2022-07-25T09:11:31;100252.97;;;24.12;77.34
46846;BME280;33947;46.804;134.252;2022-07-25T09:14:42;100272.28;;;24.19;77.96
46846;BME280;33947;46.804;134.252;2022-07-25T09:17:51;100282.59;;;24.25;78.87
46846;BME280;33947;46.804;134.252;2022-07-25T09:20:58;100288.31;;;24.22;78.13
46846;BME280;33947;46.804;134.252;2022-07-25T09:24:14;100291.69;;;24.14;78.09
46846;BME280;33947;46.804;134.252;2022-07-25T09:27:19;100276.34;;;24.04;79.61
46846;BME280;33947;46.804;134.252;2022-07-25T09:30:24;100280.31;;;23.99;79.57
46846;BME280;33947;46.804;134.252;2022-07-25T09:33:28;100277.56;;;23.90;80.68
46846;BME280;33947;46.804;134.252;2022-07-25T09:36:33;100297.41;;;23.90;81.06
46846;BME280;33947;46.804;134.252;2022-07-25T09:42:49;100292.63;;;23.82;82.48
46846;BME280;33947;46.804;134.252;2022-07-25T09:45:55;100284.47;;;23.73;82.64
46846;BME280;33947;46.804;134.252;2022-07-25T09:49:02;100263.09;;;23.58;82.72
46846;BME280;33947;46.804;134.252;2022-07-25T09:52:08;100286.22;;;23.62;83.10
46846;BME280;33947;46.804;134.252;2022-07-25T09:55:13;100281.22;;;23.58;83.30
46846;BME280;33947;46.804;134.252;2022-07-25T09:58:19;100269.91;;;23.52;83.59
46846;BME280;33947;46.804;134.252;2022-07-25T10:01:35;100266.41;;;23.40;84.30
46846;BME280;33947;46.804;134.252;2022-07-25T10:04:45;100219.16;;;23.01;84.61
46846;BME280;33947;46.804;134.252;2022-07-25T10:07:52;100297.94;;;23.41;85.18
46846;BME280;33947;46.804;134.252;2022-07-25T10:10:58;100305.34;;;23.39;84.97
46846;BME280;33947;46.804;134.252;2022-07-25T10:14:10;100306.88;;;23.32;84.14
46846;BME280;33947;46.804;134.252;2022-07-25T10:17:21;100304.88;;;23.23;84.49
46846;BME280;33947;46.804;134.252;2022-07-25T10:20:28;100304.41;;;23.18;84.67
46846;BME280;33947;46.804;134.252;2022-07-25T10:23:32;100305.47;;;23.05;85.33
46846;BME280;33947;46.804;134.252;2022-07-25T10:26:39;100310.88;;;23.05;84.95
46846;BME280;33947;46.804;134.252;2022-07-25T10:29:54;100306.34;;;22.94;85.58
46846;BME280;33947;46.804;134.252;2022-07-25T10:33:03;100307.84;;;22.87;85.99
46846;BME280;33947;46.804;134.252;2022-07-25T10:36:08;100308.00;;;22.74;86.77
46846;BME280;33947;46.804;134.252;2022-07-25T10:39:17;100308.50;;;22.68;87.72
46846;BME280;33947;46.804;134.252;2022-07-25T10:42:22;100324.88;;;22.66;88.32
46846;BME280;33947;46.804;134.252;2022-07-25T10:45:58;100327.47;;;22.57;88.99
46846;BME280;33947;46.804;134.252;2022-07-25T10:49:05;100340.50;;;22.51;89.14
46846;BME280;33947;46.804;134.252;2022-07-25T10:52:16;100336.06;;;22.39;89.25
46846;BME280;33947;46.804;134.252;2022-07-25T10:55:22;100343.34;;;22.38;90.03
46846;BME280;33947;46.804;134.252;2022-07-25T10:58:26;100324.25;;;22.17;90.06
46846;BME280;33947;46.804;134.252;2022-07-25T11:01:33;100349.69;;;22.26;91.43
46846;BME280;33947;46.804;134.252;2022-07-25T11:04:56;100343.19;;;22.17;92.12
46846;BME280;33947;46.804;134.252;2022-07-25T11:08:01;100352.06;;;22.19;91.60
46846;BME280;33947;46.804;134.252;2022-07-25T11:11:37;100358.94;;;22.23;91.09
46846;BME280;33947;46.804;134.252;2022-07-25T11:14:46;100356.59;;;22.19;90.55
46846;BME280;33947;46.804;134.252;2022-07-25T11:17:52;100281.91;;;21.71;90.88
46846;BME280;33947;46.804;134.252;2022-07-25T11:21:01;100353.25;;;22.04;91.07
46846;BME280;33947;46.804;134.252;2022-07-25T11:24:08;100357.41;;;21.96;91.25
46846;BME280;33947;46.804;134.252;2022-07-25T11:27:40;100365.50;;;21.85;92.58
46846;BME280;33947;46.804;134.252;2022-07-25T11:30:45;100351.50;;;21.80;91.81
46846;BME280;33947;46.804;134.252;2022-07-25T11:33:49;100361.19;;;21.82;90.93
46846;BME280;33947;46.804;134.252;2022-07-25T11:36:55;100366.84;;;21.55;92.03
46846;BME280;33947;46.804;134.252;2022-07-25T11:40:01;100358.28;;;21.61;92.04
46846;BME280;33947;46.804;134.252;2022-07-25T11:43:06;100364.16;;;21.55;91.88
46846;BME280;33947;46.804;134.252;2022-07-25T11:46:11;100366.97;;;21.53;92.06
46846;BME280;33947;46.804;134.252;2022-07-25T11:49:16;100365.38;;;21.51;92.12
46846;BME280;33947;46.804;134.252;2022-07-25T11:52:24;100364.50;;;21.50;91.97
46846;BME280;33947;46.804;134.252;2022-07-25T11:55:32;100371.75;;;21.50;92.17
46846;BME280;33947;46.804;134.252;2022-07-25T11:58:39;100376.19;;;21.51;91.87
46846;BME280;33947;46.804;134.252;2022-07-25T12:01:44;100359.28;;;21.36;91.89
46846;BME280;33947;46.804;134.252;2022-07-25T12:04:58;100363.47;;;21.40;91.25
46846;BME280;33947;46.804;134.252;2022-07-25T12:08:16;100363.72;;;21.37;91.27
46846;BME280;33947;46.804;134.252;2022-07-25T12:11:21;100366.00;;;21.30;91.38
46846;BME280;33947;46.804;134.252;2022-07-25T12:14:27;100347.16;;;21.17;91.61
46846;BME280;33947;46.804;134.252;2022-07-25T12:17:40;100339.88;;;21.06;91.77
46846;BME280;33947;46.804;134.252;2022-07-25T12:20:46;100357.34;;;21.14;91.66
46846;BME280;33947;46.804;134.252;2022-07-25T12:23:52;100361.91;;;21.00;92.28
46846;BME280;33947;46.804;134.252;2022-07-25T12:26:56;100370.25;;;20.97;92.91
46846;BME280;33947;46.804;134.252;2022-07-25T12:30:01;100372.41;;;20.92;92.76
46846;BME280;33947;46.804;134.252;2022-07-25T12:33:07;100368.13;;;20.89;92.85
46846;BME280;33947;46.804;134.252;2022-07-25T12:36:12;100370.38;;;20.70;93.47
46846;BME280;33947;46.804;134.252;2022-07-25T12:39:16;100360.34;;;20.72;93.66
46846;BME280;33947;46.804;134.252;2022-07-25T12:42:22;100343.31;;;20.71;93.05
46846;BME280;33947;46.804;134.252;2022-07-25T12:45:27;100351.19;;;20.74;92.73
46846;BME280;33947;46.804;134.252;2022-07-25T12:48:32;100344.91;;;20.61;93.01
46846;BME280;33947;46.804;134.252;2022-07-25T12:51:37;100348.72;;;20.58;93.67
46846;BME280;33947;46.804;134.252;2022-07-25T12:54:42;100348.06;;;20.54;94.13
46846;BME280;33947;46.804;134.252;2022-07-25T12:57:47;100349.63;;;20.46;94.06
46846;BME280;33947;46.804;134.252;2022-07-25T13:00:51;100366.22;;;20.27;95.84
46846;BME280;33947;46.804;134.252;2022-07-25T13:04:03;100356.53;;;20.37;94.60
46846;BME280;33947;46.804;134.252;2022-07-25T13:07:11;100363.22;;;20.44;93.91
46846;BME280;33947;46.804;134.252;2022-07-25T13:10:18;100374.97;;;20.43;93.93
46846;BME280;33947;46.804;134.252;2022-07-25T13:13:23;100372.28;;;20.17;95.43
46846;BME280;33947;46.804;134.252;2022-07-25T13:16:28;100356.97;;;20.31;94.09
46846;BME280;33947;46.804;134.252;2022-07-25T13:19:33;100353.53;;;20.29;93.91
46846;BME280;33947;46.804;134.252;2022-07-25T13:22:38;100348.75;;;20.19;94.29
46846;BME280;33947;46.804;134.252;2022-07-25T13:25:42;100362.38;;;20.18;94.86
46846;BME280;33947;46.804;134.252;2022-07-25T13:28:47;100365.91;;;20.18;94.71
46846;BME280;33947;46.804;134.252;2022-07-25T13:31:51;100358.03;;;20.02;95.13
46846;BME280;33947;46.804;134.252;2022-07-25T13:34:56;100366.56;;;20.09;95.18
46846;BME280;33947;46.804;134.252;2022-07-25T13:38:01;100367.97;;;20.15;95.02
46846;BME280;33947;46.804;134.252;2022-07-25T13:41:06;100363.44;;;20.15;95.01
46846;BME280;33947;46.804;134.252;2022-07-25T13:44:11;100365.38;;;20.26;94.95
46846;BME280;33947;46.804;134.252;2022-07-25T13:47:18;100359.88;;;20.28;94.57
46846;BME280;33947;46.804;134.252;2022-07-25T13:50:23;100371.84;;;20.36;94.69
46846;BME280;33947;46.804;134.252;2022-07-25T13:53:27;100372.94;;;20.34;95.00
46846;BME280;33947;46.804;134.252;2022-07-25T13:56:33;100384.34;;;20.37;95.32
46846;BME280;33947;46.804;134.252;2022-07-25T13:59:37;100363.44;;;20.28;95.38
46846;BME280;33947;46.804;134.252;2022-07-25T14:02:42;100379.53;;;20.30;95.63
46846;BME280;33947;46.804;134.252;2022-07-25T14:05:47;100372.50;;;20.27;95.43
46846;BME280;33947;46.804;134.252;2022-07-25T14:08:52;100381.56;;;20.13;96.84
46846;BME280;33947;46.804;134.252;2022-07-25T14:11:57;100359.53;;;20.19;95.66
46846;BME280;33947;46.804;134.252;2022-07-25T14:15:02;100373.78;;;20.21;95.76
46846;BME280;33947;46.804;134.252;2022-07-25T14:18:07;100376.81;;;20.30;95.40
46846;BME280;33947;46.804;134.252;2022-07-25T14:21:12;100381.34;;;20.29;95.55
46846;BME280;33947;46.804;134.252;2022-07-25T14:24:16;100367.41;;;20.22;95.83
46846;BME280;33947;46.804;134.252;2022-07-25T14:27:21;100367.75;;;20.18;95.84
46846;BME280;33947;46.804;134.252;2022-07-25T14:30:26;100373.69;;;20.23;96.18
46846;BME280;33947;46.804;134.252;2022-07-25T14:33:31;100378.63;;;20.16;96.34
46846;BME280;33947;46.804;134.252;2022-07-25T14:36:41;100372.50;;;20.14;96.69
46846;BME280;33947;46.804;134.252;2022-07-25T14:39:48;100376.59;;;20.20;96.33
46846;BME280;33947;46.804;134.252;2022-07-25T14:42:52;100376.16;;;20.13;96.26
46846;BME280;33947;46.804;134.252;2022-07-25T14:45:57;100363.88;;;20.09;95.96
46846;BME280;33947;46.804;134.252;2022-07-25T14:49:02;100361.38;;;20.06;95.60
46846;BME280;33947;46.804;134.252;2022-07-25T14:52:07;100361.38;;;19.93;96.07
46846;BME280;33947;46.804;134.252;2022-07-25T14:55:12;100367.66;;;19.93;95.86
46846;BME280;33947;46.804;134.252;2022-07-25T14:58:17;100373.25;;;19.90;95.60
46846;BME280;33947;46.804;134.252;2022-07-25T15:01:21;100380.63;;;19.87;95.66
46846;BME280;33947;46.804;134.252;2022-07-25T15:04:28;100373.75;;;19.83;95.49
46846;BME280;33947;46.804;134.252;2022-07-25T15:07:33;100378.13;;;19.71;95.74
46846;BME280;33947;46.804;134.252;2022-07-25T15:10:38;100353.50;;;19.49;96.39
46846;BME280;33947;46.804;134.252;2022-07-25T15:13:42;100372.47;;;19.48;98.07
46846;BME280;33947;46.804;134.252;2022-07-25T15:16:47;100366.53;;;19.43;97.67
46846;BME280;33947;46.804;134.252;2022-07-25T15:19:52;100361.34;;;19.40;98.05
46846;BME280;33947;46.804;134.252;2022-07-25T15:22:57;100348.84;;;19.38;97.44
46846;BME280;33947;46.804;134.252;2022-07-25T15:26:03;100355.19;;;19.37;97.66
46846;BME280;33947;46.804;134.252;2022-07-25T15:29:08;100375.16;;;19.48;98.15
46846;BME280;33947;46.804;134.252;2022-07-25T15:32:16;100364.72;;;19.43;98.45
46846;BME280;33947;46.804;134.252;2022-07-25T15:35:21;100366.44;;;19.44;98.22
46846;BME280;33947;46.804;134.252;2022-07-25T15:38:26;100377.47;;;19.54;97.50
46846;BME280;33947;46.804;134.252;2022-07-25T15:41:31;100378.44;;;19.53;97.34
46846;BME280;33947;46.804;134.252;2022-07-25T15:44:36;100375.56;;;19.42;96.78
46846;BME280;33947;46.804;134.252;2022-07-25T15:47:40;100362.63;;;19.34;97.32
46846;BME280;33947;46.804;134.252;2022-07-25T15:50:52;100375.34;;;19.45;96.95